This is the latest recevied weather packets stored in our database for station/object OE5OVL-13. If no packets are shown the sender has not sent any weather packets the latest 10 day(s).
| Time | Temp. | Humidity | Pressure | Rain* | Wind** | Luminosity | Snow |
|---|---|---|---|---|---|---|---|
| 1778042533 | 14.44° C | 83% | 722.3 hPa | 0 mm | - | - | - |
| 1778041621 | 13.89° C | 85% | 722 hPa | 0 mm | - | - | - |
| 1778040710 | 13.33° C | 84% | 721.3 hPa | 0 mm | - | - | - |
| 1778039798 | 13.33° C | 83% | 721.5 hPa | 0 mm | - | - | - |
| 1778038886 | 13.89° C | 82% | 721.6 hPa | 0 mm | - | - | - |
| 1778037975 | 13.89° C | 82% | 721.9 hPa | 0 mm | - | - | - |
| 1778037063 | 14.44° C | 82% | 722.2 hPa | 0 mm | - | - | - |
| 1778036151 | 14.44° C | 81% | 722.6 hPa | 0 mm | - | - | - |
| 1778035239 | 15° C | 81% | 723 hPa | 0 mm | - | - | - |
| 1778034328 | 15° C | 80% | 723.3 hPa | 0 mm | - | - | - |
| 1778033416 | 15.56° C | 77% | 724 hPa | 0 mm | - | - | - |
| 1778032504 | 16.11° C | 76% | 724.5 hPa | 0 mm | - | - | - |
| 1778031592 | 16.11° C | 77% | 724.4 hPa | 0 mm | - | - | - |
| 1778030681 | 16.11° C | 78% | 724.4 hPa | 0 mm | - | - | - |
| 1778028857 | 16.67° C | 77% | 724.9 hPa | 0 mm | - | - | - |
| 1778027945 | 16.67° C | 77% | 725.3 hPa | 0 mm | - | - | - |
| 1778027034 | 16.67° C | 78% | 725.2 hPa | 0 mm | - | - | - |
| 1778026122 | 16.67° C | 78% | 725.1 hPa | 0 mm | - | - | - |
| 1778025210 | 17.22° C | 77% | 725.5 hPa | 0 mm | - | - | - |
| 1778024298 | 17.22° C | 77% | 725.7 hPa | 0 mm | - | - | - |
| 1778023386 | 17.22° C | 77% | 725.4 hPa | 0 mm | - | - | - |
| 1778022475 | 17.22° C | 76% | 725.5 hPa | 0 mm | - | - | - |
| 1778021563 | 17.78° C | 74% | 725.9 hPa | 0 mm | - | - | - |
| 1778020652 | 17.78° C | 73% | 726.1 hPa | 0 mm | - | - | - |
| 1778018828 | 17.78° C | 70% | 726.2 hPa | 0 mm | - | - | - |
* Rain latest hour (hover to see other rain measurements)
** Current wind speed in m/s (hover to see current wind gust speed)